Time;durP1;ratioP1;P1;durP2;ratioP2;P2;SDS_P1;SDS_P2;PMS_P1;PMS_P2;Temp;Humidity;BMP_temperature;BMP_pressure;BME280_temperature;BME280_humidity;BME280_pressure;Samples;Min_cycle;Max_cycle;Signal;HPM_P1;HPM_P2
2021/10/22 00:00:21;;;;;;;3.60;2.97;;;;;;;9.74;71.34;96559.38;5073915;28;20186;-64
2021/10/22 00:02:46;;;;;;;4.40;2.33;;;;;;;9.55;72.00;96560.50;5074050;28;20187;-64
2021/10/22 00:05:12;;;;;;;4.07;2.50;;;;;;;9.64;71.28;96562.97;5073799;28;20186;-65
2021/10/22 00:07:38;;;;;;;6.50;2.60;;;;;;;9.48;71.66;96566.41;5072610;28;20206;-64
2021/10/22 00:10:05;;;;;;;2.97;2.57;;;;;;;9.29;73.42;96577.97;5047242;28;20708;-64
2021/10/22 00:12:30;;;;;;;4.30;2.70;;;;;;;9.13;73.46;96577.91;5054128;28;20936;-64
2021/10/22 00:14:56;;;;;;;3.03;2.50;;;;;;;9.38;72.44;96581.44;5058837;28;20448;-65
2021/10/22 00:17:22;;;;;;;3.93;2.60;;;;;;;9.44;72.24;96580.78;5068399;28;20723;-64
2021/10/22 00:19:48;;;;;;;4.00;2.30;;;;;;;9.42;72.56;96587.16;5064742;28;20183;-63
2021/10/22 00:22:14;;;;;;;5.20;2.60;;;;;;;9.56;71.42;96578.69;5051031;28;20427;-65
2021/10/22 00:24:40;;;;;;;3.10;2.60;;;;;;;9.52;71.10;96591.25;5066949;28;20553;-63
2021/10/22 00:27:06;;;;;;;6.00;3.53;;;;;;;9.56;70.94;96588.31;5070611;28;20257;-63
2021/10/22 00:29:31;;;;;;;3.97;2.90;;;;;;;9.42;71.92;96597.59;5071979;28;20640;-66
2021/10/22 00:31:57;;;;;;;4.60;2.60;;;;;;;9.14;72.21;96590.81;5073095;28;20424;-64
2021/10/22 00:34:22;;;;;;;6.00;2.13;;;;;;;9.13;72.51;96596.22;5073402;28;20186;-64
2021/10/22 00:36:48;;;;;;;2.33;2.13;;;;;;;8.97;72.94;96599.59;5073615;28;20715;-63
2021/10/22 00:39:14;;;;;;;4.07;2.40;;;;;;;8.97;72.61;96603.00;5047190;28;20179;-63
2021/10/22 00:41:41;;;;;;;4.27;2.43;;;;;;;9.07;72.55;96606.31;5072635;28;20561;-65
2021/10/22 00:44:07;;;;;;;3.60;2.40;;;;;;;8.75;72.78;96607.81;5070115;28;20418;-64
2021/10/22 00:46:37;;;;;;;3.20;2.47;;;;;;;9.00;73.61;96604.50;5060784;28;20930;-65
2021/10/22 00:49:09;;;;;;;5.47;2.37;;;;;;;8.96;73.29;96606.59;5072981;28;20457;-65
2021/10/22 00:51:35;;;;;;;9.40;2.73;;;;;;;9.02;72.53;96603.34;5073639;28;20425;-64
2021/10/22 00:54:04;;;;;;;6.97;2.63;;;;;;;8.88;73.80;96607.38;5073443;28;20425;-64
2021/10/22 00:56:30;;;;;;;4.10;2.47;;;;;;;8.65;74.45;96609.72;5058513;28;20478;-64
2021/10/22 00:58:56;;;;;;;2.97;2.30;;;;;;;8.80;73.68;96606.53;5071827;28;21033;-64
2021/10/22 01:01:22;;;;;;;4.37;2.93;;;;;;;9.14;72.93;96605.69;5071290;28;20569;-65
2021/10/22 01:03:47;;;;;;;3.07;2.77;;;;;;;8.94;73.37;96599.88;5062399;28;20426;-64
2021/10/22 01:06:13;;;;;;;4.47;2.90;;;;;;;8.89;73.13;96602.97;5072778;28;20186;-65
2021/10/22 01:08:38;;;;;;;8.40;2.77;;;;;;;9.27;72.29;96593.00;5072531;28;20202;-64
2021/10/22 01:11:04;;;;;;;6.43;3.10;;;;;;;9.04;73.39;96606.66;5064334;28;20178;-65
2021/10/22 01:13:30;;;;;;;3.27;2.97;;;;;;;8.97;73.33;96608.22;5072787;28;20214;-65
2021/10/22 01:15:56;;;;;;;6.73;3.60;;;;;;;8.94;73.29;96611.19;5069162;28;20194;-63
2021/10/22 01:18:26;;;;;;;5.13;3.90;;;;;;;8.88;73.63;96617.81;5067172;28;20891;-65
2021/10/22 01:21:02;;;;;;;4.13;3.70;;;;;;;8.93;73.05;96617.38;5065140;28;20713;-66
2021/10/22 01:23:27;;;;;;;7.50;3.97;;;;;;;8.91;73.78;96616.72;5051991;28;20525;-65
2021/10/22 01:25:53;;;;;;;5.20;3.80;;;;;;;8.94;73.51;96611.19;5072484;28;20433;-64
2021/10/22 01:28:20;;;;;;;4.30;3.30;;;;;;;8.81;74.61;96618.63;5072219;28;20207;-65
2021/10/22 01:30:46;;;;;;;5.50;2.97;;;;;;;8.88;74.23;96611.78;5072624;28;20217;-65
2021/10/22 01:33:12;;;;;;;4.33;2.90;;;;;;;9.07;72.49;96611.53;5072718;28;20495;-65
2021/10/22 01:35:37;;;;;;;6.87;2.60;;;;;;;9.27;72.26;96602.63;5071926;28;20531;-64
2021/10/22 01:38:03;;;;;;;3.20;2.40;;;;;;;9.06;72.08;96607.31;5074103;28;21018;-64
2021/10/22 01:40:30;;;;;;;5.60;2.53;;;;;;;9.23;72.07;96612.56;5073680;28;20581;-65
2021/10/22 01:42:55;;;;;;;2.57;2.37;;;;;;;9.18;72.54;96614.88;5074613;28;20581;-64
2021/10/22 01:45:21;;;;;;;4.83;2.57;;;;;;;9.31;71.86;96615.25;5062831;28;20425;-64
2021/10/22 01:47:48;;;;;;;4.10;2.30;;;;;;;9.50;71.08;96621.16;5072896;28;20663;-64
2021/10/22 01:50:14;;;;;;;5.90;2.93;;;;;;;9.47;71.06;96608.41;5072482;28;20293;-65
2021/10/22 01:52:40;;;;;;;5.83;2.20;;;;;;;9.42;71.67;96615.91;5071965;28;20935;-64
2021/10/22 01:55:06;;;;;;;4.33;2.30;;;;;;;9.25;72.24;96617.66;5066202;28;20528;-64
2021/10/22 01:57:32;;;;;;;5.30;2.33;;;;;;;8.89;73.26;96623.88;5060694;28;20206;-63
2021/10/22 01:59:57;;;;;;;7.47;2.10;;;;;;;9.15;72.57;96623.00;5072226;28;20431;-64
2021/10/22 02:02:23;;;;;;;6.13;2.20;;;;;;;8.87;72.90;96625.81;5072213;28;20186;-64
2021/10/22 02:04:49;;;;;;;4.40;2.20;;;;;;;8.96;72.38;96624.88;5066212;28;20190;-63
2021/10/22 02:07:14;;;;;;;7.20;2.73;;;;;;;9.04;72.59;96627.56;5053761;28;20198;-63
2021/10/22 02:09:40;;;;;;;5.13;2.60;;;;;;;9.09;72.32;96616.63;5071908;28;20289;-64
2021/10/22 02:12:06;;;;;;;4.00;2.77;;;;;;;9.17;72.21;96624.50;5061843;28;20178;-64
2021/10/22 02:14:32;;;;;;;3.20;2.37;;;;;;;9.13;72.39;96622.34;5067647;28;20265;-64
2021/10/22 02:16:58;;;;;;;5.77;2.73;;;;;;;9.17;71.61;96626.28;5063084;28;20445;-64
2021/10/22 02:19:24;;;;;;;7.20;2.70;;;;;;;9.05;71.97;96630.97;5066929;28;20955;-63
2021/10/22 02:21:49;;;;;;;9.90;2.70;;;;;;;8.82;72.67;96630.72;5059454;28;20207;-64
2021/10/22 02:24:15;;;;;;;3.20;2.33;;;;;;;8.74;72.79;96628.88;5070355;28;20190;-65
2021/10/22 02:26:41;;;;;;;4.60;2.60;;;;;;;8.62;73.67;96627.50;5071297;28;20187;-64
2021/10/22 02:29:06;;;;;;;7.80;2.30;;;;;;;8.70;72.90;96635.38;5071284;28;20217;-64
2021/10/22 02:31:32;;;;;;;4.13;2.13;;;;;;;8.68;72.58;96639.94;5063113;28;20545;-64
2021/10/22 02:33:57;;;;;;;12.43;2.77;;;;;;;8.66;72.97;96640.09;5070335;28;20547;-64
2021/10/22 02:36:23;;;;;;;18.80;5.07;;;;;;;8.62;72.79;96632.72;5071824;28;20198;-63
2021/10/22 02:38:49;;;;;;;13.00;4.00;;;;;;;8.70;72.08;96632.75;5070250;28;20630;-63
2021/10/22 02:41:14;;;;;;;21.33;5.50;;;;;;;8.57;72.03;96634.00;5071824;28;20193;-64
2021/10/22 02:43:40;;;;;;;11.63;3.70;;;;;;;8.61;72.37;96642.34;5067168;28;20550;-64
2021/10/22 02:46:06;;;;;;;6.30;3.17;;;;;;;8.30;73.07;96640.16;5053942;28;20682;-63
2021/10/22 02:48:32;;;;;;;17.80;5.70;;;;;;;8.29;73.17;96644.53;5066895;28;20206;-63
2021/10/22 02:50:57;;;;;;;36.10;7.90;;;;;;;8.17;73.84;96642.31;5074297;28;20447;-64
2021/10/22 02:53:23;;;;;;;65.13;14.90;;;;;;;8.00;73.92;96645.59;5072785;28;20236;-65
2021/10/22 02:55:49;;;;;;;134.97;26.43;;;;;;;7.97;74.14;96645.06;5070980;28;20194;-65
2021/10/22 02:58:15;;;;;;;57.90;9.53;;;;;;;7.95;74.39;96647.00;5072531;28;20198;-64
2021/10/22 03:00:40;;;;;;;10.90;3.30;;;;;;;8.02;73.47;96642.84;5058672;28;20178;-63
2021/10/22 03:03:06;;;;;;;10.73;4.13;;;;;;;8.01;73.16;96646.44;5076397;28;20192;-64
2021/10/22 03:05:33;;;;;;;7.53;2.60;;;;;;;8.26;72.71;96650.03;5050432;28;20190;-63
2021/10/22 03:07:59;;;;;;;6.33;3.30;;;;;;;8.30;72.25;96650.59;5074136;28;20217;-65
2021/10/22 03:10:24;;;;;;;6.23;2.97;;;;;;;8.22;72.23;96647.91;5069953;28;20454;-64
2021/10/22 03:12:50;;;;;;;4.33;2.47;;;;;;;8.15;72.82;96656.34;5058217;28;20487;-65
2021/10/22 03:15:16;;;;;;;9.03;2.90;;;;;;;8.19;72.18;96661.28;5069520;28;20257;-64
2021/10/22 03:17:42;;;;;;;17.77;4.90;;;;;;;8.22;71.87;96663.56;5068426;28;20210;-63
2021/10/22 03:20:09;;;;;;;39.30;9.03;;;;;;;8.20;72.10;96665.50;5078023;28;20436;-63
2021/10/22 03:22:36;;;;;;;8.27;3.60;;;;;;;8.09;71.97;96669.16;5069844;28;20190;-64
2021/10/22 03:25:03;;;;;;;7.00;3.20;;;;;;;7.93;73.37;96664.63;5065526;28;20432;-65
2021/10/22 03:27:28;;;;;;;20.90;5.27;;;;;;;7.99;72.92;96671.84;5071864;28;20464;-64
2021/10/22 03:29:54;;;;;;;34.40;7.20;;;;;;;8.07;72.92;96671.09;5072205;28;20483;-64
2021/10/22 03:32:20;;;;;;;21.43;5.70;;;;;;;7.88;73.02;96669.47;5072687;28;20186;-64
2021/10/22 03:34:46;;;;;;;10.60;3.17;;;;;;;7.86;72.61;96676.59;5071156;28;21005;-64
2021/10/22 03:37:12;;;;;;;3.47;2.23;;;;;;;7.99;72.30;96684.91;5062749;28;20753;-64
2021/10/22 03:39:38;;;;;;;6.70;2.97;;;;;;;7.86;72.79;96681.84;5069971;28;20258;-63
2021/10/22 03:42:04;;;;;;;12.40;3.10;;;;;;;7.94;72.80;96684.53;5050821;28;20470;-64
2021/10/22 03:44:29;;;;;;;17.27;3.07;;;;;;;7.81;72.51;96677.88;5048820;28;20646;-64
2021/10/22 03:46:55;;;;;;;12.50;3.17;;;;;;;7.73;72.98;96677.78;5067651;28;20536;-64
2021/10/22 03:49:21;;;;;;;5.47;2.43;;;;;;;7.84;72.26;96676.78;5061933;28;20217;-65
2021/10/22 03:51:47;;;;;;;9.27;3.17;;;;;;;7.76;73.05;96685.34;5039940;28;20187;-65
2021/10/22 03:54:13;;;;;;;14.10;2.90;;;;;;;7.66;72.76;96685.38;5043001;28;20480;-64
2021/10/22 03:56:38;;;;;;;14.33;3.00;;;;;;;7.77;72.47;96688.75;5051129;28;20581;-65
2021/10/22 03:59:04;;;;;;;6.50;2.57;;;;;;;7.57;72.59;96683.66;5061440;28;20270;-64
2021/10/22 04:01:29;;;;;;;10.00;2.60;;;;;;;7.82;72.14;96689.13;5062421;28;20182;-65
2021/10/22 04:03:55;;;;;;;6.87;2.30;;;;;;;7.65;72.28;96704.59;5052425;28;20183;-66
2021/10/22 04:06:20;;;;;;;8.87;2.30;;;;;;;7.62;71.79;96689.28;5050729;28;20206;-64
2021/10/22 04:08:46;;;;;;;9.43;2.60;;;;;;;7.72;71.22;96697.03;5048867;28;20203;-64
2021/10/22 04:11:12;;;;;;;7.63;2.50;;;;;;;7.79;71.52;96705.06;5041048;28;20205;-65
2021/10/22 04:13:37;;;;;;;8.43;2.90;;;;;;;7.78;71.12;96709.50;5059633;28;20316;-63
2021/10/22 04:16:03;;;;;;;7.13;3.03;;;;;;;7.75;71.20;96711.56;5056980;28;20545;-64
2021/10/22 04:18:29;;;;;;;13.67;3.10;;;;;;;7.61;71.30;96707.66;5054320;28;20235;-63
2021/10/22 04:20:55;;;;;;;6.60;2.70;;;;;;;7.71;70.85;96708.41;5047597;28;20188;-64
2021/10/22 04:23:21;;;;;;;13.50;3.30;;;;;;;7.54;71.40;96707.41;5061534;28;20417;-64
2021/10/22 04:25:49;;;;;;;10.50;3.07;;;;;;;7.32;72.34;96713.81;5053147;28;20229;-65
2021/10/22 04:28:15;;;;;;;14.00;2.83;;;;;;;7.34;71.60;96719.72;5045510;28;20473;-65
2021/10/22 04:30:40;;;;;;;8.90;3.30;;;;;;;7.16;72.40;96715.28;5061024;28;20819;-64
2021/10/22 04:33:06;;;;;;;11.93;3.03;;;;;;;7.08;73.21;96709.94;5054892;28;20422;-62
2021/10/22 04:35:32;;;;;;;5.40;2.50;;;;;;;7.05;72.94;96712.84;5062201;28;20206;-65
2021/10/22 04:40:31;;;;;;;16.57;3.20;;;;;;;7.20;72.55;96716.63;5053646;28;20427;-65
2021/10/22 04:42:58;;;;;;;7.03;2.90;;;;;;;7.32;72.22;96713.81;5053432;28;20563;-65
2021/10/22 04:45:23;;;;;;;11.43;3.10;;;;;;;7.44;71.93;96717.88;5057772;28;20445;-65
2021/10/22 04:47:49;;;;;;;6.73;3.30;;;;;;;7.32;72.27;96709.44;5049650;28;20442;-64
2021/10/22 04:50:15;;;;;;;11.30;3.43;;;;;;;7.33;72.30;96715.47;5052698;28;20219;-65
2021/10/22 04:52:40;;;;;;;18.57;3.70;;;;;;;7.28;71.91;96717.69;5049077;28;20199;-63
2021/10/22 04:55:08;;;;;;;11.73;3.70;;;;;;;7.32;71.61;96709.44;5053389;28;20654;-64
2021/10/22 04:57:34;;;;;;;11.37;3.77;;;;;;;7.17;73.03;96706.50;5053953;28;20229;-65
2021/10/22 04:59:59;;;;;;;6.50;3.50;;;;;;;7.28;72.64;96707.28;5052639;28;20429;-65
2021/10/22 05:02:25;;;;;;;12.70;4.63;;;;;;;7.41;71.96;96710.38;5054243;28;20517;-64
2021/10/22 05:04:50;;;;;;;29.40;4.50;;;;;;;7.34;72.64;96704.91;5052467;28;20183;-63
2021/10/22 05:07:16;;;;;;;11.27;4.30;;;;;;;7.34;72.84;96711.91;5054190;28;20219;-66
2021/10/22 05:09:42;;;;;;;12.03;4.30;;;;;;;7.51;71.86;96705.94;5061944;28;20215;-64
2021/10/22 05:12:07;;;;;;;9.40;4.43;;;;;;;7.43;71.76;96711.06;5053821;28;20252;-64
2021/10/22 05:14:34;;;;;;;10.40;4.30;;;;;;;7.30;71.67;96706.16;5055529;28;20193;-64
2021/10/22 05:17:00;;;;;;;7.23;3.47;;;;;;;7.18;72.46;96718.53;5055144;28;20286;-65
2021/10/22 05:19:27;;;;;;;16.20;3.70;;;;;;;6.86;73.24;96709.31;5066851;28;20878;-66
2021/10/22 05:21:52;;;;;;;10.53;3.97;;;;;;;6.87;72.72;96710.13;5054124;28;20261;-65
2021/10/22 05:24:18;;;;;;;12.10;4.87;;;;;;;7.34;71.56;96712.75;5053703;28;20426;-64
2021/10/22 05:26:43;;;;;;;12.60;5.47;;;;;;;7.19;71.58;96714.16;5053142;28;20183;-65
2021/10/22 05:29:09;;;;;;;22.80;4.90;;;;;;;7.09;71.61;96714.19;5052577;28;20203;-64
2021/10/22 05:31:34;;;;;;;16.80;4.40;;;;;;;7.23;70.93;96718.13;5052393;28;20187;-66
2021/10/22 05:34:00;;;;;;;12.30;4.70;;;;;;;6.98;71.75;96716.97;5054077;28;20243;-66
2021/10/22 05:36:26;;;;;;;14.57;4.70;;;;;;;6.89;72.64;96716.03;5052402;28;20218;-65
2021/10/22 05:38:52;;;;;;;11.83;5.20;;;;;;;6.69;72.70;96715.25;5054387;28;20203;-65
2021/10/22 05:41:18;;;;;;;18.63;6.57;;;;;;;6.70;73.22;96720.31;5058312;28;20365;-65
2021/10/22 05:43:43;;;;;;;11.60;5.00;;;;;;;6.94;72.41;96729.47;5069801;28;20512;-64
2021/10/22 05:46:09;;;;;;;12.27;4.13;;;;;;;6.95;72.35;96732.88;5044388;28;20433;-64
2021/10/22 05:48:35;;;;;;;10.53;4.60;;;;;;;7.04;71.42;96725.03;5061077;28;20292;-66
2021/10/22 05:51:01;;;;;;;19.57;4.00;;;;;;;6.85;73.33;96730.31;5042137;28;20271;-67
2021/10/22 05:53:26;;;;;;;12.70;4.30;;;;;;;6.94;72.59;96728.63;5049449;28;20176;-65
2021/10/22 05:55:52;;;;;;;17.90;4.90;;;;;;;6.95;72.59;96725.06;5069804;28;20444;-64
2021/10/22 05:58:18;;;;;;;17.50;4.93;;;;;;;6.98;72.38;96740.41;5072444;28;20652;-65
2021/10/22 06:00:44;;;;;;;22.60;5.10;;;;;;;6.86;72.20;96734.56;5073197;28;20266;-65
2021/10/22 06:03:10;;;;;;;13.47;5.53;;;;;;;6.80;72.66;96735.94;5071632;28;20555;-64
2021/10/22 06:05:39;;;;;;;16.67;5.30;;;;;;;6.68;73.13;96742.28;5067297;28;20186;-66
2021/10/22 06:08:05;;;;;;;15.07;5.80;;;;;;;6.47;74.13;96738.03;5069902;28;20198;-65
2021/10/22 06:10:30;;;;;;;17.00;5.17;;;;;;;6.58;74.18;96743.09;5066051;28;20981;-66
2021/10/22 06:12:56;;;;;;;12.13;4.90;;;;;;;6.83;73.45;96746.06;5071036;28;20450;-64
2021/10/22 06:15:22;;;;;;;10.67;3.80;;;;;;;6.85;72.86;96751.16;5067487;28;20583;-65
2021/10/22 06:17:48;;;;;;;12.30;4.03;;;;;;;7.08;72.63;96743.81;5062979;28;20206;-64
2021/10/22 06:20:24;;;;;;;8.30;4.17;;;;;;;6.96;72.67;96755.38;5072480;28;20197;-65
2021/10/22 06:25:34;;;;;;;13.37;4.17;;;;;;;7.07;71.96;96763.84;5061436;28;20519;-65
2021/10/22 06:27:59;;;;;;;15.60;3.63;;;;;;;6.94;72.43;96767.69;5071338;28;21064;-65
2021/10/22 06:30:25;;;;;;;19.60;4.07;;;;;;;6.98;72.25;96764.69;5071642;28;20293;-65
2021/10/22 06:32:50;;;;;;;11.43;3.40;;;;;;;6.96;72.00;96777.03;5072150;28;20198;-65
2021/10/22 06:35:16;;;;;;;9.13;3.17;;;;;;;6.98;71.87;96766.47;5071738;28;20272;-65
2021/10/22 06:37:42;;;;;;;13.50;4.37;;;;;;;6.82;72.35;96780.06;5063843;28;20213;-69
2021/10/22 06:40:08;;;;;;;9.03;3.50;;;;;;;7.01;72.41;96774.00;5062199;28;20265;-65
2021/10/22 06:42:34;;;;;;;14.53;3.20;;;;;;;7.12;71.83;96784.28;5072330;28;20641;-65
2021/10/22 06:44:59;;;;;;;24.63;4.17;;;;;;;7.15;71.51;96791.81;5065437;28;20424;-62
2021/10/22 06:47:25;;;;;;;11.83;3.67;;;;;;;7.23;71.03;96798.94;5075266;28;20237;-62
2021/10/22 06:49:50;;;;;;;14.93;4.03;;;;;;;7.23;71.27;96807.56;5065685;28;20204;-63
2021/10/22 06:52:16;;;;;;;15.27;3.70;;;;;;;7.04;71.79;96799.81;5066510;28;20191;-63
2021/10/22 06:54:41;;;;;;;10.60;3.67;;;;;;;7.31;70.16;96804.25;5049323;28;20197;-65
2021/10/22 06:57:07;;;;;;;14.63;3.93;;;;;;;7.09;71.35;96808.00;5071909;28;20293;-65
2021/10/22 06:59:33;;;;;;;16.77;3.70;;;;;;;7.34;70.83;96809.19;5071868;28;20174;-64
2021/10/22 07:01:58;;;;;;;10.67;4.07;;;;;;;7.50;69.94;96805.16;5071589;28;20526;-64
2021/10/22 07:04:24;;;;;;;15.23;4.03;;;;;;;7.43;70.22;96810.13;5066092;28;20187;-66
2021/10/22 07:09:34;;;;;;;12.70;3.07;;;;;;;7.61;69.32;96823.25;5060507;28;20293;-66
2021/10/22 07:11:59;;;;;;;8.33;3.13;;;;;;;7.96;69.08;96828.72;5071403;28;20425;-65
2021/10/22 07:14:28;;;;;;;18.37;3.57;;;;;;;7.96;68.52;96832.16;5071904;28;20189;-66
2021/10/22 07:16:53;;;;;;;9.57;3.07;;;;;;;7.87;68.10;96832.19;5066565;28;20658;-66
2021/10/22 07:19:19;;;;;;;10.87;2.80;;;;;;;8.24;67.48;96839.16;5071593;28;20418;-66
2021/10/22 07:21:49;;;;;;;10.20;3.23;;;;;;;8.09;68.01;96846.66;5057895;28;20232;-64
2021/10/22 07:24:23;;;;;;;10.97;3.50;;;;;;;8.36;67.58;96852.84;5041270;28;20191;-66
2021/10/22 07:26:49;;;;;;;11.60;3.00;;;;;;;8.49;66.44;96857.72;5071760;28;21121;-66
2021/10/22 07:29:16;;;;;;;9.47;3.50;;;;;;;8.61;65.99;96861.75;5066713;28;20465;-65
2021/10/22 07:31:41;;;;;;;14.37;3.93;;;;;;;8.82;65.05;96868.50;5058780;28;20503;-66
2021/10/22 07:34:08;;;;;;;14.77;2.90;;;;;;;8.86;64.98;96873.28;5053543;28;20438;-64
2021/10/22 07:36:34;;;;;;;10.90;3.00;;;;;;;8.64;65.02;96881.53;5071303;28;20273;-66
2021/10/22 07:38:59;;;;;;;13.43;3.50;;;;;;;9.07;64.43;96882.59;5071241;28;20463;-64
2021/10/22 07:41:25;;;;;;;11.70;3.03;;;;;;;9.04;64.03;96894.19;5072075;28;20588;-64
2021/10/22 07:43:50;;;;;;;16.87;3.03;;;;;;;8.66;64.02;96893.50;5070436;28;20187;-65
2021/10/22 07:46:16;;;;;;;6.93;2.63;;;;;;;8.85;63.85;96896.94;5032926;28;20219;-64
2021/10/22 07:48:44;;;;;;;9.03;2.97;;;;;;;8.67;64.82;96900.38;5047581;28;20211;-66
2021/10/22 07:51:10;;;;;;;11.67;2.80;;;;;;;8.92;63.24;96898.00;5054767;28;20175;-66
2021/10/22 07:53:35;;;;;;;14.00;2.63;;;;;;;8.99;63.28;96904.25;5058967;28;20491;-64
2021/10/22 07:56:01;;;;;;;19.63;3.40;;;;;;;8.81;64.12;96911.28;5067150;28;20201;-64
2021/10/22 07:58:27;;;;;;;19.60;3.50;;;;;;;8.72;64.32;96919.00;5059080;28;20203;-64
2021/10/22 08:00:53;;;;;;;12.97;2.90;;;;;;;9.21;63.64;96923.06;5074998;28;20201;-64
2021/10/22 08:03:19;;;;;;;13.27;3.47;;;;;;;9.17;63.13;96925.16;5075935;28;20183;-65
2021/10/22 08:05:45;;;;;;;13.43;2.70;;;;;;;9.11;63.50;96930.16;5053395;28;20831;-66
2021/10/22 08:08:11;;;;;;;12.73;3.33;;;;;;;9.33;62.53;96937.53;5059959;28;20444;-65
2021/10/22 08:10:37;;;;;;;14.90;3.40;;;;;;;9.43;63.02;96932.25;5073718;28;20202;-65
2021/10/22 08:13:05;;;;;;;13.13;2.80;;;;;;;9.78;60.90;96932.31;5074506;28;20232;-66
2021/10/22 08:15:30;;;;;;;13.23;3.33;;;;;;;9.84;60.58;96926.47;5076591;28;20432;-65
2021/10/22 08:17:57;;;;;;;12.97;3.00;;;;;;;9.80;60.79;96925.94;5069985;28;21249;-68
2021/10/22 08:20:24;;;;;;;18.33;3.97;;;;;;;9.97;60.29;96926.06;5065206;28;20202;-66
2021/10/22 08:22:52;;;;;;;23.53;3.80;;;;;;;9.75;60.46;96938.69;5067958;28;20426;-64
2021/10/22 08:25:21;;;;;;;13.03;3.57;;;;;;;9.88;60.21;96946.13;5048162;28;20959;-66
2021/10/22 08:27:49;;;;;;;11.07;3.00;;;;;;;9.94;60.28;96939.44;5065997;28;20493;-68
2021/10/22 08:30:22;;;;;;;11.80;2.63;;;;;;;10.03;58.87;96935.09;5075742;28;20518;-66
2021/10/22 08:32:51;;;;;;;9.37;3.07;;;;;;;9.75;59.64;96945.72;5045297;28;20784;-64
2021/10/22 08:35:22;;;;;;;18.33;3.10;;;;;;;9.97;59.65;96947.81;5073098;28;20506;-65
2021/10/22 08:37:48;;;;;;;15.90;3.57;;;;;;;10.30;57.96;96949.78;5056294;28;20448;-65
2021/10/22 08:40:15;;;;;;;16.30;2.60;;;;;;;10.10;56.08;96952.63;5057872;28;20412;-65
2021/10/22 08:42:43;;;;;;;16.40;2.60;;;;;;;9.76;57.77;96960.44;5073838;28;20277;-66
2021/10/22 08:45:10;;;;;;;12.63;2.73;;;;;;;10.13;57.33;96951.50;5064814;28;21059;-66
2021/10/22 08:47:36;;;;;;;10.07;2.30;;;;;;;9.68;57.13;96958.59;5068508;28;20456;-65
2021/10/22 08:50:13;;;;;;;11.90;2.13;;;;;;;9.96;57.53;96959.25;5074133;28;20768;-66
2021/10/22 08:52:40;;;;;;;15.00;1.87;;;;;;;10.05;57.15;96949.66;5074345;28;20988;-66
2021/10/22 08:55:08;;;;;;;11.97;2.43;;;;;;;10.10;57.15;96954.41;5060677;28;20443;-68
2021/10/22 08:57:37;;;;;;;6.80;2.13;;;;;;;10.13;55.68;96954.13;5073883;28;20471;-64
2021/10/22 09:00:05;;;;;;;10.97;2.73;;;;;;;9.99;57.44;96948.47;5072419;28;20452;-66
2021/10/22 09:02:30;;;;;;;11.13;2.43;;;;;;;9.38;57.37;96955.44;5073551;28;20464;-65
2021/10/22 09:05:01;;;;;;;16.67;2.63;;;;;;;9.90;57.16;96959.88;5065460;28;20452;-66
2021/10/22 09:07:42;;;;;;;13.70;2.50;;;;;;;10.14;56.03;96966.25;5071725;28;20301;-65
2021/10/22 09:10:09;;;;;;;16.37;2.10;;;;;;;10.43;54.88;96963.28;5064398;28;20562;-65
2021/10/22 09:12:44;;;;;;;12.23;2.30;;;;;;;10.56;54.48;96962.88;5060341;28;20423;-65
2021/10/22 09:15:10;;;;;;;8.37;2.40;;;;;;;10.19;56.26;96965.75;5066719;28;20458;-65
2021/10/22 09:17:40;;;;;;;14.30;2.20;;;;;;;10.07;55.68;96958.19;5064322;28;20437;-64
2021/10/22 09:20:07;;;;;;;9.40;2.50;;;;;;;10.29;53.98;96961.22;5053571;28;20470;-66
2021/10/22 09:22:34;;;;;;;7.83;2.13;;;;;;;10.26;54.33;96954.50;5064499;28;20447;-65
2021/10/22 09:25:09;;;;;;;20.53;2.70;;;;;;;10.24;54.74;96953.03;5056849;28;20448;-66
2021/10/22 09:27:41;;;;;;;9.23;2.83;;;;;;;10.22;55.18;96953.19;5067108;28;20447;-66
2021/10/22 09:30:25;;;;;;;4.93;1.87;;;;;;;10.31;53.50;96959.28;5072356;28;20564;-66
2021/10/22 09:32:58;;;;;;;9.83;2.07;;;;;;;10.05;55.05;96959.31;5071993;28;20498;-67
2021/10/22 09:35:34;;;;;;;12.57;2.73;;;;;;;10.65;52.80;96958.47;5061195;28;20515;-66
2021/10/22 09:38:14;;;;;;;7.60;2.27;;;;;;;10.22;52.54;96955.78;5069757;28;20460;-65
2021/10/22 09:40:41;;;;;;;8.00;2.30;;;;;;;10.53;51.48;96951.88;5066912;28;20428;-66
2021/10/22 09:43:14;;;;;;;5.63;1.60;;;;;;;10.73;50.99;96962.91;5071013;28;20485;-67
2021/10/22 09:45:39;;;;;;;10.63;2.20;;;;;;;10.54;50.56;96962.19;5071258;28;20428;-66
2021/10/22 09:48:22;;;;;;;12.70;2.40;;;;;;;11.18;50.18;96960.88;5072378;28;20494;-65
2021/10/22 09:50:47;;;;;;;5.20;1.50;;;;;;;10.98;48.53;96957.72;5052477;28;20199;-67
2021/10/22 09:53:35;;;;;;;11.00;1.83;;;;;;;11.53;47.36;96949.25;5059525;28;20423;-67
2021/10/22 09:56:03;;;;;;;8.90;1.70;;;;;;;11.14;47.26;96968.25;5069442;28;20186;-66
2021/10/22 09:58:29;;;;;;;9.30;2.27;;;;;;;10.91;46.01;96971.50;5029190;28;20448;-65
2021/10/22 10:01:11;;;;;;;7.53;1.80;;;;;;;10.86;45.29;96973.75;5060068;28;20465;-67
2021/10/22 10:03:38;;;;;;;6.87;1.40;;;;;;;10.87;45.75;96962.31;5071463;28;20261;-66
2021/10/22 10:06:07;;;;;;;8.97;1.70;;;;;;;11.07;45.74;96956.78;5063509;28;20536;-65
2021/10/22 10:08:34;;;;;;;6.97;1.60;;;;;;;11.44;45.33;96960.75;5072484;28;20961;-65
2021/10/22 10:11:00;;;;;;;10.53;2.73;;;;;;;11.61;45.40;96956.31;5070466;28;20467;-65
2021/10/22 10:13:29;;;;;;;6.23;1.43;;;;;;;11.60;43.71;96949.44;5070708;28;20431;-65
2021/10/22 10:15:56;;;;;;;6.00;1.63;;;;;;;11.19;44.13;96950.25;5071107;28;20437;-65
2021/10/22 10:18:22;;;;;;;9.10;1.73;;;;;;;10.75;44.03;96959.16;5070547;28;20443;-66
2021/10/22 10:20:48;;;;;;;9.63;1.93;;;;;;;10.74;44.71;96954.91;5070668;28;20435;-66
2021/10/22 10:23:18;;;;;;;10.03;1.77;;;;;;;11.28;44.02;96958.13;5055579;28;20433;-66
2021/10/22 10:25:45;;;;;;;7.50;1.30;;;;;;;11.44;41.96;96952.88;5062457;28;20511;-66
2021/10/22 10:28:10;;;;;;;7.20;1.27;;;;;;;11.84;41.98;96953.81;5060752;28;20521;-66
2021/10/22 10:30:42;;;;;;;5.00;1.50;;;;;;;11.86;41.66;96947.59;5053019;28;21020;-65
2021/10/22 10:33:10;;;;;;;5.90;1.70;;;;;;;11.13;41.62;96950.88;5074374;28;20186;-66
2021/10/22 10:35:38;;;;;;;4.40;2.00;;;;;;;11.39;41.39;96956.97;5072523;28;20907;-65
2021/10/22 10:38:08;;;;;;;3.40;1.47;;;;;;;11.78;39.77;96951.06;5066499;28;20437;-64
2021/10/22 10:40:34;;;;;;;9.83;1.90;;;;;;;11.50;40.17;96954.84;5073177;28;20892;-65
2021/10/22 10:43:03;;;;;;;7.53;1.73;;;;;;;11.40;40.73;96954.19;5074095;28;20486;-66
2021/10/22 10:45:29;;;;;;;7.33;1.77;;;;;;;11.74;40.22;96958.44;5073221;28;20482;-67
2021/10/22 10:47:54;;;;;;;8.03;1.47;;;;;;;11.51;39.99;96948.59;5065496;28;20446;-66
2021/10/22 10:50:41;;;;;;;4.87;1.33;;;;;;;11.65;40.17;96952.38;5062926;28;20996;-65
2021/10/22 10:53:09;;;;;;;5.97;1.63;;;;;;;12.08;39.48;96953.97;5048194;28;20186;-66
2021/10/22 10:55:41;;;;;;;7.13;1.70;;;;;;;12.19;40.01;96955.44;5045612;28;20469;-66
2021/10/22 10:58:06;;;;;;;6.50;1.90;;;;;;;11.93;38.63;96940.69;5061446;28;20444;-66
2021/10/22 11:01:07;;;;;;;7.10;1.60;;;;;;;12.17;38.52;96955.59;5066098;28;20409;-65
2021/10/22 11:03:46;;;;;;;7.63;1.70;;;;;;;12.40;39.37;96954.88;5032530;28;20198;-65
2021/10/22 11:06:42;;;;;;;3.97;1.20;;;;;;;12.39;37.86;96959.31;5025450;28;20432;-64
2021/10/22 11:09:07;;;;;;;7.03;1.90;;;;;;;12.77;37.47;96955.19;5031596;28;20468;-66
2021/10/22 11:11:38;;;;;;;4.30;1.40;;;;;;;12.33;36.81;96948.66;5031870;28;20520;-65
2021/10/22 11:14:04;;;;;;;6.00;1.77;;;;;;;12.26;37.21;96951.13;5021854;28;20616;-65
2021/10/22 11:16:44;;;;;;;5.40;1.40;;;;;;;12.21;37.51;96956.09;5023541;28;20513;-65
2021/10/22 11:19:15;;;;;;;4.67;1.50;;;;;;;11.93;37.20;96959.06;5026557;28;20210;-65
2021/10/22 11:21:46;;;;;;;6.60;1.80;;;;;;;12.94;36.01;96954.13;5033821;28;20509;-66
2021/10/22 11:24:20;;;;;;;4.87;1.60;;;;;;;13.04;36.32;96959.97;5029705;28;20414;-64
2021/10/22 11:27:01;;;;;;;4.47;1.03;;;;;;;12.58;35.85;96962.53;5031005;28;20586;-66
2021/10/22 11:29:27;;;;;;;3.50;1.20;;;;;;;12.68;35.62;96963.13;5025993;28;20464;-64
2021/10/22 11:32:01;;;;;;;6.43;1.50;;;;;;;12.63;34.86;96962.03;5044417;28;20460;-64
2021/10/22 11:34:32;;;;;;;4.17;1.47;;;;;;;12.59;35.38;96958.91;5036217;28;21086;-64
2021/10/22 11:37:08;;;;;;;3.03;1.53;;;;;;;13.03;34.80;96970.69;5035845;28;20531;-65
2021/10/22 11:39:39;;;;;;;3.87;1.30;;;;;;;12.33;35.39;96970.50;5062613;28;20424;-65
2021/10/22 11:42:09;;;;;;;7.30;1.77;;;;;;;13.17;34.87;96961.22;5045835;28;20946;-64
2021/10/22 11:44:59;;;;;;;2.57;1.17;;;;;;;12.90;36.22;96966.81;5068198;28;20416;-65